Ora Direzione Vento Velocita' Vento Media Vento Raffica Max. Temperatura Wind Chill Pioggia Pressione
21:43:20.0176 °(S)1.0 Kts1.0 Kts12.8 Kts24.6 °C24.6 °C0.0 mm1014.4 Hpa
21:23:17.0295 °(WNW)1.8 Kts1.6 Kts12.8 Kts25.1 °C25.1 °C0.0 mm1014.4 Hpa
21:02:57.0292 °(WNW)0.0 Kts0.8 Kts12.8 Kts25.8 °C25.8 °C0.0 mm1014.1 Hpa
20:42:38.0244 °(WSW)3.7 Kts2.9 Kts12.8 Kts26.5 °C26.5 °C0.0 mm1013.9 Hpa
20:22:13.0255 °(WSW)2.7 Kts2.5 Kts12.8 Kts27.7 °C27.7 °C0.0 mm1013.9 Hpa
20:01:58.0230 °(SW)2.7 Kts3.5 Kts12.8 Kts29.1 °C29.1 °C0.0 mm1013.6 Hpa
19:41:52.0300 °(WNW)3.7 Kts2.7 Kts12.8 Kts32.8 °C32.8 °C0.0 mm1013.7 Hpa
19:22:57.0300 °(WNW)3.7 Kts2.7 Kts12.8 Kts32.8 °C32.8 °C0.0 mm1013.7 Hpa
19:02:35.0300 °(WNW)3.7 Kts2.7 Kts12.8 Kts32.8 °C32.8 °C0.0 mm1013.7 Hpa
18:42:31.0300 °(WNW)3.7 Kts2.7 Kts12.8 Kts32.8 °C32.8 °C0.0 mm1013.7 Hpa
18:21:40.0300 °(WNW)3.7 Kts2.7 Kts12.8 Kts32.8 °C32.8 °C0.0 mm1013.7 Hpa
18:02:47.0266 °(W)1.8 Kts1.8 Kts12.8 Kts32.9 °C32.9 °C0.0 mm1013.7 Hpa
17:42:19.0250 °(WSW)1.8 Kts1.4 Kts12.8 Kts32.4 °C32.4 °C0.0 mm1013.8 Hpa
17:22:08.0212 °(SSW)1.8 Kts2.9 Kts12.8 Kts32.6 °C32.6 °C0.0 mm1013.9 Hpa
17:01:55.0292 °(WNW)4.7 Kts3.1 Kts12.8 Kts32.5 °C32.5 °C0.0 mm1014.0 Hpa
16:41:41.0302 °(WNW)2.7 Kts4.3 Kts12.8 Kts32.7 °C32.7 °C0.0 mm1014.0 Hpa
16:23:09.0296 °(WNW)1.8 Kts3.3 Kts12.8 Kts33.1 °C33.1 °C0.0 mm1014.1 Hpa
16:02:39.0295 °(WNW)2.7 Kts4.7 Kts12.8 Kts33.2 °C33.2 °C0.0 mm1014.3 Hpa
15:42:14.0313 °(NW)4.7 Kts3.3 Kts12.8 Kts32.8 °C32.8 °C0.0 mm1014.4 Hpa
15:21:37.0296 °(WNW)3.7 Kts4.5 Kts12.8 Kts32.9 °C32.9 °C0.0 mm1014.5 Hpa